createdAt,value
2023-01-31T00:00:22.492Z,33.55
2023-01-31T00:05:27.300Z,30.73
2023-01-31T00:10:32.226Z,32.72
2023-01-31T00:15:39.893Z,32.78
2023-01-31T00:20:44.664Z,39.20
2023-01-31T00:25:50.390Z,30.85
2023-01-31T00:30:57.824Z,24.50
2023-01-31T00:36:02.583Z,25.17
2023-01-31T00:41:08.171Z,27.42
2023-01-31T00:46:15.756Z,28.90
2023-01-31T00:51:21.336Z,30.20
2023-01-31T00:56:27.525Z,25.55
2023-01-31T01:01:35.296Z,20.90
2023-01-31T01:06:42.135Z,31.95
2023-01-31T01:11:48.342Z,26.52
2023-01-31T01:17:00.327Z,28.98
2023-01-31T01:22:05.168Z,26.73
2023-01-31T01:27:09.969Z,35.92
2023-01-31T01:32:25.070Z,25.50
2023-01-31T01:37:30.598Z,29.63
2023-01-31T01:42:44.777Z,21.70
2023-01-31T01:47:58.262Z,20.92
2023-01-31T01:53:17.927Z,19.60
2023-01-31T01:58:25.735Z,16.67
2023-01-31T02:03:33.166Z,14.52
2023-01-31T02:08:38.982Z,14.32
2023-01-31T02:13:44.494Z,12.00
2023-01-31T02:18:52.466Z,10.57
2023-01-31T02:24:14.986Z,10.02
2023-01-31T02:29:40.118Z,8.68
2023-01-31T02:34:54.279Z,8.80
2023-01-31T02:40:03.166Z,8.43
2023-01-31T02:50:33.576Z,8.48
2023-01-31T02:55:52.434Z,9.15
2023-01-31T03:01:00.009Z,8.45
2023-01-31T03:06:28.475Z,9.50
2023-01-31T03:11:49.545Z,7.43
2023-01-31T03:17:08.399Z,8.15
2023-01-31T03:22:17.026Z,9.63
2023-01-31T03:27:25.001Z,8.88
2023-01-31T03:32:33.287Z,6.63
2023-01-31T03:37:40.752Z,6.22
2023-01-31T03:42:49.339Z,8.10
2023-01-31T03:47:54.867Z,6.70
2023-01-31T03:53:01.718Z,7.80
2023-01-31T03:58:09.794Z,7.88
2023-01-31T04:03:17.529Z,7.65
2023-01-31T04:08:22.541Z,7.30
2023-01-31T04:13:29.949Z,7.70
2023-01-31T04:18:37.439Z,7.85
2023-01-31T04:23:43.577Z,6.90
2023-01-31T04:28:50.944Z,6.65
2023-01-31T04:33:56.285Z,6.82
2023-01-31T04:39:01.603Z,6.78
2023-01-31T04:44:09.292Z,6.35
2023-01-31T04:49:14.022Z,6.00
2023-01-31T04:54:18.835Z,6.13
2023-01-31T04:59:26.357Z,6.15
2023-01-31T05:04:31.580Z,5.65
2023-01-31T05:09:36.333Z,6.00
2023-01-31T05:14:43.684Z,5.78
2023-01-31T05:19:49.043Z,5.38
2023-01-31T05:24:54.851Z,5.63
2023-01-31T05:30:05.825Z,6.30
2023-01-31T05:35:11.086Z,6.10
2023-01-31T05:40:16.848Z,6.75
2023-01-31T05:45:24.177Z,7.00
2023-01-31T05:50:28.971Z,6.82
2023-01-31T05:55:33.760Z,7.97
2023-01-31T06:00:41.153Z,6.55
2023-01-31T06:05:45.975Z,5.72
2023-01-31T06:10:50.669Z,5.63
2023-01-31T06:15:58.091Z,5.57
2023-01-31T06:21:02.762Z,6.35
2023-01-31T06:26:07.596Z,5.55
2023-01-31T06:31:15.643Z,5.60
2023-01-31T06:36:20.567Z,6.70
2023-01-31T06:41:25.525Z,6.10
2023-01-31T06:46:33.047Z,5.68
2023-01-31T06:51:37.931Z,4.90
2023-01-31T06:56:42.780Z,5.10
2023-01-31T07:01:50.271Z,5.88
2023-01-31T07:06:55.228Z,6.38
2023-01-31T07:11:59.986Z,5.28
2023-01-31T07:17:07.406Z,6.15
2023-01-31T07:22:12.225Z,6.03
2023-01-31T07:27:17.137Z,5.20
2023-01-31T07:32:24.589Z,6.15
2023-01-31T07:37:29.959Z,5.30
2023-01-31T07:42:34.866Z,4.85
2023-01-31T07:47:42.982Z,5.57
2023-01-31T07:52:49.331Z,6.30
2023-01-31T07:57:54.224Z,5.10
2023-01-31T08:03:13.964Z,5.90
2023-01-31T08:08:21.347Z,5.03
2023-01-31T08:13:27.111Z,5.57
2023-01-31T08:18:34.523Z,5.88
2023-01-31T08:23:41.207Z,6.60
2023-01-31T08:28:46.909Z,5.60
2023-01-31T08:33:54.445Z,6.35
2023-01-31T08:38:59.272Z,4.95
2023-01-31T08:44:11.626Z,7.65
2023-01-31T08:49:19.175Z,6.43
2023-01-31T08:54:24.104Z,4.90
2023-01-31T08:59:30.071Z,6.00
2023-01-31T09:04:37.861Z,5.88
2023-01-31T09:09:43.755Z,8.27
2023-01-31T09:14:48.851Z,3.58
2023-01-31T09:19:56.542Z,3.13
2023-01-31T09:25:01.343Z,5.38
2023-01-31T09:30:06.504Z,4.07
2023-01-31T09:35:15.008Z,6.32
2023-01-31T09:40:23.962Z,4.40
2023-01-31T09:45:32.071Z,2.63
2023-01-31T09:50:43.554Z,4.85
2023-01-31T09:55:52.025Z,2.72
2023-01-31T10:01:00.485Z,3.85
2023-01-31T10:06:13.670Z,3.97
2023-01-31T10:11:22.401Z,2.78
2023-01-31T10:16:30.461Z,2.53
2023-01-31T10:21:39.263Z,3.42
2023-01-31T10:26:45.715Z,2.55
2023-01-31T10:31:53.941Z,2.75
2023-01-31T10:37:02.937Z,3.40
2023-01-31T10:42:12.333Z,2.80
2023-01-31T10:47:18.202Z,5.30
2023-01-31T10:52:36.134Z,7.80
2023-01-31T10:57:41.393Z,4.45
2023-01-31T11:02:46.644Z,3.58
2023-01-31T11:07:54.163Z,6.10
2023-01-31T11:13:02.208Z,5.10
2023-01-31T11:18:08.593Z,2.42
2023-01-31T11:23:17.332Z,3.63
2023-01-31T11:28:24.007Z,4.07
2023-01-31T11:33:41.864Z,3.20
2023-01-31T11:38:49.583Z,7.82
2023-01-31T11:43:55.511Z,1.92
2023-01-31T11:49:00.730Z,2.08
2023-01-31T11:54:11.430Z,1.80
2023-01-31T11:59:19.952Z,1.10
2023-01-31T12:04:26.666Z,1.20
2023-01-31T12:09:41.266Z,1.60
2023-01-31T12:14:53.800Z,2.78
2023-01-31T12:20:21.323Z,2.25
2023-01-31T12:25:44.090Z,2.22
2023-01-31T12:30:57.770Z,1.45
2023-01-31T12:36:10.549Z,1.30
2023-01-31T12:41:22.675Z,1.35
2023-01-31T12:52:15.907Z,1.30
2023-01-31T12:57:41.756Z,1.83
2023-01-31T13:03:12.813Z,1.50
2023-01-31T13:14:00.909Z,1.75
2023-01-31T13:19:06.842Z,1.35
2023-01-31T13:24:15.863Z,1.40
2023-01-31T13:29:41.282Z,1.60
2023-01-31T13:34:52.739Z,1.70
2023-01-31T13:39:58.751Z,1.92
2023-01-31T13:45:05.124Z,2.08
2023-01-31T13:50:33.042Z,2.67
2023-01-31T13:55:40.330Z,2.58
2023-01-31T14:12:34.716Z,4.20
2023-01-31T14:17:54.370Z,2.15
2023-01-31T14:23:19.679Z,2.53
2023-01-31T14:28:27.115Z,2.00
2023-01-31T14:33:32.260Z,3.72
2023-01-31T14:38:47.658Z,2.38
2023-01-31T14:44:02.343Z,1.50
2023-01-31T14:49:39.426Z,1.52
2023-01-31T14:55:09.622Z,1.63
2023-01-31T15:00:21.901Z,1.60
2023-01-31T15:05:42.792Z,1.95
2023-01-31T15:10:58.291Z,2.40
2023-01-31T15:16:03.514Z,2.28
2023-01-31T15:21:24.825Z,2.58
2023-01-31T15:26:31.650Z,1.50
2023-01-31T15:31:41.275Z,2.03
2023-01-31T15:48:32.243Z,5.57
2023-01-31T16:16:58.008Z,8.02
2023-01-31T16:33:04.118Z,7.47
2023-01-31T16:38:23.729Z,8.00
2023-01-31T17:00:33.259Z,5.88
2023-01-31T17:05:41.475Z,11.20
2023-01-31T17:11:04.270Z,7.38
2023-01-31T17:16:24.429Z,7.57
2023-01-31T17:21:48.518Z,8.70
2023-01-31T17:26:56.399Z,5.75
2023-01-31T17:32:01.774Z,5.93
2023-01-31T17:37:06.943Z,5.78
2023-01-31T17:42:19.992Z,13.00
2023-01-31T17:47:27.486Z,15.98
2023-01-31T17:52:39.095Z,11.57
2023-01-31T17:57:46.706Z,10.85
2023-01-31T18:03:21.560Z,13.43
2023-01-31T18:19:28.960Z,6.75
2023-01-31T18:30:11.301Z,9.35
2023-01-31T18:40:42.474Z,8.45
2023-01-31T19:02:06.793Z,43.33
2023-01-31T19:07:11.535Z,12.15
2023-01-31T19:12:44.288Z,10.10
2023-01-31T19:18:41.310Z,8.07
2023-01-31T19:23:51.456Z,8.85
2023-01-31T19:28:56.568Z,12.65
2023-01-31T19:34:02.453Z,11.48
2023-01-31T19:39:10.650Z,8.68
2023-01-31T19:44:15.286Z,6.57
2023-01-31T19:49:20.351Z,6.70
2023-01-31T19:54:33.285Z,8.32
2023-01-31T19:59:38.587Z,7.72
2023-01-31T20:04:43.591Z,8.95
2023-01-31T20:09:50.872Z,9.82
2023-01-31T20:15:09.615Z,13.95
2023-01-31T20:26:01.150Z,12.07
2023-01-31T20:31:09.561Z,15.32
2023-01-31T20:36:14.555Z,15.82
2023-01-31T20:41:19.517Z,8.57
2023-01-31T20:46:30.005Z,12.68
2023-01-31T20:51:35.016Z,10.82
2023-01-31T21:02:07.022Z,12.35
2023-01-31T21:23:46.132Z,20.17
2023-01-31T21:28:53.383Z,38.03
2023-01-31T21:33:58.274Z,30.92
2023-01-31T21:39:06.226Z,25.55
2023-01-31T21:44:11.145Z,23.05
2023-01-31T21:49:15.775Z,19.55
2023-01-31T21:54:23.019Z,22.58
2023-01-31T21:59:27.903Z,23.25
2023-01-31T22:04:32.655Z,35.03
2023-01-31T22:09:39.852Z,20.10
2023-01-31T22:14:44.580Z,18.67
2023-01-31T22:19:49.215Z,21.23
2023-01-31T22:24:56.643Z,42.40
2023-01-31T22:30:15.025Z,21.10
2023-01-31T22:35:19.896Z,23.52
2023-01-31T22:40:27.141Z,16.88
2023-01-31T22:45:31.743Z,24.95
2023-01-31T22:50:36.284Z,24.02
2023-01-31T22:55:44.311Z,21.58
2023-01-31T23:00:49.181Z,16.33
2023-01-31T23:05:53.811Z,20.50
2023-01-31T23:11:06.025Z,20.98
2023-01-31T23:16:13.795Z,13.57
2023-01-31T23:21:19.819Z,14.50
2023-01-31T23:26:27.270Z,19.52
2023-01-31T23:31:32.690Z,20.00
2023-01-31T23:36:37.522Z,20.15
2023-01-31T23:41:45.345Z,16.25
2023-01-31T23:46:51.136Z,17.08
2023-01-31T23:51:55.935Z,13.82
2023-01-31T23:57:03.321Z,26.10
